Time;durP1;ratioP1;P1;durP2;ratioP2;P2;SDS_P1;SDS_P2;PMS_P1;PMS_P2;Temp;Humidity;BMP_temperature;BMP_pressure;BME280_temperature;BME280_humidity;BME280_pressure;Samples;Min_cycle;Max_cycle;Signal;HPM_P1;HPM_P2
2023/06/11 13:09:49;;;;;;;67.90;1.80;;;36.80;6.50;;;;;;4972886;28;20558;-76
2023/06/11 13:12:16;;;;;;;67.87;1.90;;;36.40;6.30;;;;;;4973181;28;20886;-76
2023/06/11 13:14:41;;;;;;;68.47;1.90;;;35.20;6.00;;;;;;4972831;28;20182;-76
2023/06/11 13:17:07;;;;;;;68.97;2.10;;;35.00;8.40;;;;;;4970063;28;20442;-76
2023/06/11 13:19:33;;;;;;;69.53;2.00;;;35.30;7.30;;;;;;4972631;28;20258;-76
2023/06/11 13:21:58;;;;;;;69.20;2.10;;;35.10;6.90;;;;;;4972742;28;20543;-75
2023/06/11 13:24:24;;;;;;;68.87;1.90;;;34.90;8.00;;;;;;4972996;28;20170;-79
2023/06/11 13:26:50;;;;;;;68.97;1.97;;;34.70;7.70;;;;;;4967284;28;20235;-75
2023/06/11 13:29:19;;;;;;;71.47;1.97;;;34.80;7.40;;;;;;4972745;28;20234;-75
2023/06/11 13:31:45;;;;;;;69.93;2.40;;;34.20;8.30;;;;;;4973174;28;20477;-76
2023/06/11 13:34:10;;;;;;;69.17;2.07;;;34.40;7.90;;;;;;4976519;28;20421;-75
2023/06/11 13:36:36;;;;;;;70.63;2.60;;;34.20;7.80;;;;;;4974530;28;20202;-75
2023/06/11 13:39:03;;;;;;;69.57;1.93;;;34.20;8.50;;;;;;4976266;28;20206;-75
2023/06/11 13:41:28;;;;;;;69.47;2.03;;;33.90;8.10;;;;;;4976359;28;20173;-75
2023/06/11 13:43:54;;;;;;;69.90;2.20;;;33.70;8.80;;;;;;4976549;28;20409;-74
2023/06/11 13:46:20;;;;;;;69.77;2.00;;;33.50;9.50;;;;;;4976103;28;20195;-75
2023/06/11 13:48:46;;;;;;;70.27;2.13;;;33.50;8.80;;;;;;4976098;28;20181;-76
2023/06/11 13:51:12;;;;;;;70.50;2.40;;;33.10;9.80;;;;;;4971023;28;20179;-77
2023/06/11 13:53:37;;;;;;;70.70;2.43;;;33.50;8.70;;;;;;4956924;28;20185;-76
2023/06/11 13:56:04;;;;;;;69.93;1.90;;;33.90;9.30;;;;;;4956559;28;20435;-75
2023/06/11 13:58:29;;;;;;;71.20;2.37;;;33.20;9.80;;;;;;4956955;28;20719;-74
2023/06/11 14:00:55;;;;;;;70.27;2.00;;;33.50;9.20;;;;;;4956833;28;20415;-75
2023/06/11 14:03:21;;;;;;;69.87;2.00;;;33.70;8.20;;;;;;4956465;29;20167;-75
2023/06/11 14:05:46;;;;;;;70.63;2.23;;;33.80;8.00;;;;;;4956329;28;20648;-75
2023/06/11 14:08:17;;;;;;;70.90;2.40;;;34.20;8.80;;;;;;4956374;28;20182;-76
2023/06/11 14:10:44;;;;;;;70.30;2.27;;;34.00;8.30;;;;;;4956554;28;20190;-75
2023/06/11 14:13:10;;;;;;;70.67;2.37;;;33.70;8.90;;;;;;4956613;28;20415;-75
2023/06/11 14:15:36;;;;;;;70.40;2.07;;;33.50;9.90;;;;;;4955965;28;20442;-77
2023/06/11 14:18:01;;;;;;;70.53;1.97;;;34.20;7.20;;;;;;4956286;28;20493;-75
2023/06/11 14:20:27;;;;;;;71.80;2.37;;;34.80;7.10;;;;;;4956459;28;20172;-75
2023/06/11 14:22:53;;;;;;;70.10;2.07;;;34.90;7.10;;;;;;4956540;28;20660;-75
2023/06/11 14:25:18;;;;;;;70.50;2.10;;;34.80;6.90;;;;;;4961094;28;20198;-76
2023/06/11 14:27:44;;;;;;;70.27;2.10;;;34.40;8.20;;;;;;4975427;28;20237;-77
2023/06/11 14:30:11;;;;;;;71.43;2.20;;;34.80;7.80;;;;;;4975844;28;20564;-75
2023/06/11 14:32:36;;;;;;;70.57;2.30;;;34.60;8.60;;;;;;4975330;28;20198;-76
2023/06/11 14:35:02;;;;;;;70.97;2.17;;;34.30;9.90;;;;;;4976716;28;20402;-77
2023/06/11 14:37:28;;;;;;;70.80;2.40;;;34.30;9.00;;;;;;4977900;28;20174;-78
2023/06/11 14:39:54;;;;;;;70.40;2.13;;;34.10;8.50;;;;;;4977618;28;20194;-77
2023/06/11 14:42:20;;;;;;;70.80;2.20;;;33.70;9.00;;;;;;4977465;28;20177;-77
2023/06/11 14:44:46;;;;;;;77.70;2.17;;;33.30;8.60;;;;;;4976038;28;20418;-77
2023/06/11 14:47:12;;;;;;;70.17;2.00;;;33.30;8.70;;;;;;4977472;28;20195;-77
2023/06/11 14:49:37;;;;;;;70.30;2.00;;;33.50;7.90;;;;;;4976749;28;20433;-77
2023/06/11 14:52:08;;;;;;;70.20;2.07;;;33.70;7.30;;;;;;4976958;28;20186;-77
2023/06/11 14:54:35;;;;;;;70.23;2.07;;;33.50;7.30;;;;;;5019492;23;20172;-71
2023/06/11 14:57:11;;;;;;;70.87;2.30;;;33.50;8.10;;;;;;4989776;28;20447;-70
2023/06/11 14:59:37;;;;;;;70.10;1.90;;;33.30;9.40;;;;;;4986745;28;20444;-70
2023/06/11 15:02:02;;;;;;;70.40;2.13;;;33.50;7.90;;;;;;4995046;28;20758;-70
2023/06/11 15:04:28;;;;;;;70.23;2.00;;;33.20;7.70;;;;;;4992170;28;20174;-70
2023/06/11 15:06:53;;;;;;;70.70;2.10;;;33.20;8.60;;;;;;4974286;28;20174;-70
2023/06/11 15:09:19;;;;;;;70.43;2.00;;;33.70;7.70;;;;;;4974733;28;20282;-70
2023/06/11 15:11:45;;;;;;;70.90;2.27;;;33.60;9.60;;;;;;4974305;28;20178;-70
2023/06/11 15:14:10;;;;;;;70.50;2.23;;;33.70;8.70;;;;;;4974388;28;20550;-70
2023/06/11 15:16:37;;;;;;;70.47;2.20;;;33.90;7.80;;;;;;4973720;28;20199;-69
2023/06/11 15:19:02;;;;;;;70.50;2.30;;;33.70;8.00;;;;;;4974417;28;20223;-69
2023/06/11 15:21:28;;;;;;;70.00;1.83;;;33.50;8.50;;;;;;4974243;28;20417;-69
2023/06/11 15:23:54;;;;;;;72.07;2.23;;;32.90;8.30;;;;;;4974400;28;20295;-69
2023/06/11 15:26:19;;;;;;;70.93;2.00;;;33.10;9.60;;;;;;4973568;28;20194;-70
2023/06/11 15:28:45;;;;;;;70.40;2.00;;;33.20;8.70;;;;;;4974155;28;20179;-69
2023/06/11 15:31:10;;;;;;;70.37;2.10;;;33.30;8.50;;;;;;4974085;28;20178;-69
2023/06/11 15:33:36;;;;;;;70.40;1.90;;;33.60;7.90;;;;;;4974069;28;20636;-69
2023/06/11 15:36:02;;;;;;;70.20;1.90;;;33.30;7.40;;;;;;4973924;28;20198;-69
2023/06/11 15:38:29;;;;;;;70.50;2.00;;;32.70;8.80;;;;;;4973781;28;20280;-70
2023/06/11 15:40:55;;;;;;;70.87;2.10;;;30.30;7.60;;;;;;4974224;28;20632;-69
2023/06/11 15:43:20;;;;;;;70.80;2.00;;;33.00;7.60;;;;;;4974029;28;20413;-69
2023/06/11 15:45:49;;;;;;;70.27;1.90;;;32.50;7.90;;;;;;4973779;28;20738;-70
2023/06/11 15:48:15;;;;;;;70.60;2.20;;;32.60;7.60;;;;;;4973830;28;20233;-68
2023/06/11 15:50:40;;;;;;;70.93;2.40;;;32.90;8.00;;;;;;4973870;28;20422;-70
2023/06/11 15:53:06;;;;;;;70.53;2.00;;;33.20;7.90;;;;;;4973780;28;20174;-70
2023/06/11 15:55:32;;;;;;;70.37;2.07;;;33.30;7.00;;;;;;4987894;28;20217;-72
2023/06/11 15:57:57;;;;;;;70.50;2.10;;;33.50;7.00;;;;;;4988286;28;20248;-70
2023/06/11 16:00:23;;;;;;;70.57;1.90;;;33.00;8.10;;;;;;4973767;28;20170;-70
2023/06/11 16:02:49;;;;;;;70.60;2.17;;;33.10;7.80;;;;;;4973249;28;20257;-70
2023/06/11 16:05:15;;;;;;;70.27;1.90;;;33.30;7.90;;;;;;4973407;28;20506;-72
2023/06/11 16:07:40;;;;;;;70.77;2.10;;;33.10;8.00;;;;;;4973303;28;20648;-71
2023/06/11 16:10:06;;;;;;;70.43;1.93;;;32.90;8.70;;;;;;4973339;28;20346;-71
2023/06/11 16:12:32;;;;;;;71.23;2.37;;;33.00;7.90;;;;;;4973455;28;20209;-73
2023/06/11 16:14:57;;;;;;;70.67;2.33;;;33.10;8.00;;;;;;4972917;28;20456;-71
2023/06/11 16:17:23;;;;;;;70.57;1.90;;;33.10;7.50;;;;;;4973308;28;20175;-72
2023/06/11 16:19:50;;;;;;;70.90;2.30;;;33.30;8.40;;;;;;4973296;28;20178;-71
2023/06/11 16:22:15;;;;;;;70.67;2.10;;;32.70;8.90;;;;;;4973207;28;20203;-71
2023/06/11 16:24:41;;;;;;;70.57;2.20;;;33.10;7.10;;;;;;4972748;28;20434;-72
2023/06/11 16:27:07;;;;;;;71.40;2.33;;;32.90;7.30;;;;;;4973381;28;20252;-72
2023/06/11 16:29:32;;;;;;;70.73;2.17;;;32.50;7.50;;;;;;4973073;28;20253;-71
2023/06/11 16:31:58;;;;;;;70.87;2.50;;;32.60;7.90;;;;;;4988222;28;20598;-71
2023/06/11 16:34:23;;;;;;;73.10;2.27;;;32.80;8.00;;;;;;4973036;28;20210;-71
2023/06/11 16:36:49;;;;;;;72.57;2.63;;;32.60;8.30;;;;;;4972747;28;20229;-71
2023/06/11 16:39:14;;;;;;;71.07;2.10;;;32.50;8.90;;;;;;4972930;28;20277;-71
2023/06/11 16:41:40;;;;;;;71.00;2.30;;;32.50;7.90;;;;;;4972944;28;20597;-71
2023/06/11 16:44:06;;;;;;;70.67;2.20;;;32.60;7.30;;;;;;4972932;28;20174;-71
2023/06/11 16:46:31;;;;;;;70.77;2.20;;;32.30;7.60;;;;;;4972336;28;20651;-72
2023/06/11 16:48:57;;;;;;;70.60;1.90;;;32.30;7.40;;;;;;4972926;28;20647;-71
2023/06/11 16:51:23;;;;;;;72.10;2.70;;;32.40;8.60;;;;;;4973074;28;20174;-71
2023/06/11 16:53:49;;;;;;;71.50;2.40;;;31.90;9.00;;;;;;4972782;28;20201;-71
2023/06/11 16:56:18;;;;;;;71.10;2.20;;;32.00;8.90;;;;;;4972652;28;20268;-71
2023/06/11 16:58:44;;;;;;;70.80;2.07;;;31.70;9.40;;;;;;4972379;28;20544;-72
2023/06/11 17:01:09;;;;;;;71.07;2.07;;;31.40;10.60;;;;;;4972941;28;20489;-71
2023/06/11 17:03:35;;;;;;;71.00;2.13;;;31.20;9.60;;;;;;4972794;28;20205;-71
2023/06/11 17:06:02;;;;;;;70.83;2.20;;;31.10;9.80;;;;;;4973102;28;20190;-71
2023/06/11 17:08:28;;;;;;;71.67;2.60;;;31.00;9.80;;;;;;4978829;28;20640;-71
2023/06/11 17:10:54;;;;;;;72.27;2.43;;;31.00;10.70;;;;;;4978900;28;20417;-71
2023/06/11 17:13:19;;;;;;;71.57;2.50;;;31.10;10.00;;;;;;4977792;28;20416;-71
2023/06/11 17:15:45;;;;;;;70.87;2.10;;;31.20;10.10;;;;;;4978931;28;20202;-71
2023/06/11 17:18:11;;;;;;;71.47;2.37;;;31.00;10.30;;;;;;4971312;28;20296;-71
2023/06/11 17:20:39;;;;;;;71.20;2.37;;;30.80;10.30;;;;;;4980059;28;20166;-73
2023/06/11 17:23:06;;;;;;;71.40;2.40;;;30.70;10.30;;;;;;4980008;28;20698;-73
2023/06/11 17:25:32;;;;;;;71.30;2.33;;;30.70;10.20;;;;;;4979505;28;20525;-73
2023/06/11 17:27:58;;;;;;;71.80;2.70;;;30.60;11.70;;;;;;4976304;28;20528;-73
2023/06/11 17:30:24;;;;;;;70.97;2.10;;;30.50;11.00;;;;;;4979376;28;20505;-72
2023/06/11 17:32:50;;;;;;;71.30;2.00;;;30.20;10.60;;;;;;4977523;28;20492;-73
2023/06/11 17:35:15;;;;;;;71.40;2.20;;;30.10;11.50;;;;;;4969292;28;20449;-73
2023/06/11 17:37:41;;;;;;;71.90;2.33;;;30.20;10.90;;;;;;4979387;28;20190;-72
2023/06/11 17:40:07;;;;;;;71.40;1.90;;;30.30;9.30;;;;;;4979381;28;20532;-72
2023/06/11 17:42:33;;;;;;;70.83;2.10;;;29.90;10.00;;;;;;4976010;28;20257;-73
2023/06/11 17:44:58;;;;;;;71.37;2.37;;;29.70;10.90;;;;;;4968551;28;20551;-73
2023/06/11 17:47:24;;;;;;;71.57;2.30;;;29.70;10.70;;;;;;4979120;28;20536;-72
2023/06/11 17:49:50;;;;;;;72.13;2.47;;;29.90;10.50;;;;;;4977204;28;20815;-71
2023/06/11 17:52:16;;;;;;;71.30;2.17;;;29.90;11.40;;;;;;4976474;28;20174;-71
2023/06/11 17:54:42;;;;;;;71.67;2.20;;;30.00;10.40;;;;;;4978876;28;20441;-71
2023/06/11 17:57:08;;;;;;;71.67;2.30;;;30.20;10.60;;;;;;4979322;28;20401;-71
2023/06/11 17:59:33;;;;;;;71.70;2.13;;;30.00;11.50;;;;;;4979196;28;20201;-72
2023/06/11 18:01:59;;;;;;;71.97;2.20;;;30.10;10.00;;;;;;4978937;28;20170;-71
2023/06/11 18:04:25;;;;;;;71.87;2.30;;;30.10;10.20;;;;;;4978916;28;20546;-71
2023/06/11 18:06:50;;;;;;;72.40;2.77;;;29.90;10.60;;;;;;4979195;28;20249;-71
2023/06/11 18:09:17;;;;;;;72.80;2.90;;;29.70;10.50;;;;;;4979225;28;20531;-71
2023/06/11 18:11:43;;;;;;;72.10;2.33;;;29.80;10.70;;;;;;4978989;28;20178;-71
2023/06/11 18:14:09;;;;;;;72.23;2.50;;;29.90;11.30;;;;;;4978783;28;20413;-72
2023/06/11 18:16:35;;;;;;;72.10;2.00;;;29.90;10.70;;;;;;4978794;28;20214;-71
2023/06/11 18:19:01;;;;;;;72.80;2.30;;;29.80;11.30;;;;;;4976854;28;20206;-71
2023/06/11 18:21:27;;;;;;;72.23;2.30;;;29.70;11.30;;;;;;4975998;28;20412;-71
2023/06/11 18:23:52;;;;;;;72.67;2.50;;;29.70;11.40;;;;;;4975506;28;20406;-71
2023/06/11 18:26:18;;;;;;;72.47;2.37;;;29.80;11.40;;;;;;4975493;28;20198;-71
2023/06/11 18:28:43;;;;;;;72.27;2.33;;;29.50;11.80;;;;;;4974334;28;20186;-71
2023/06/11 18:31:09;;;;;;;72.53;2.20;;;29.30;11.90;;;;;;4975939;28;20233;-71
2023/06/11 18:33:35;;;;;;;72.40;2.30;;;29.40;12.00;;;;;;4975523;28;20720;-71
2023/06/11 18:36:01;;;;;;;73.23;2.60;;;29.50;12.10;;;;;;4975223;28;20445;-71
2023/06/11 18:38:26;;;;;;;72.63;2.30;;;29.50;13.20;;;;;;4975431;28;20233;-71
2023/06/11 18:40:53;;;;;;;72.57;2.33;;;29.10;13.20;;;;;;4975719;28;20655;-71
2023/06/11 18:43:18;;;;;;;72.80;2.57;;;29.10;13.20;;;;;;4975308;28;20206;-71
2023/06/11 18:45:44;;;;;;;72.90;2.20;;;29.10;13.30;;;;;;4975380;28;20461;-71
2023/06/11 18:48:09;;;;;;;72.83;2.30;;;28.90;13.20;;;;;;4975491;28;20229;-71
2023/06/11 18:50:35;;;;;;;73.00;2.37;;;29.00;14.60;;;;;;4975473;28;20174;-71
2023/06/11 18:53:01;;;;;;;73.33;2.50;;;28.80;13.10;;;;;;4975333;28;20182;-72
2023/06/11 18:55:29;;;;;;;73.17;2.30;;;28.90;14.30;;;;;;4974707;28;20214;-71
2023/06/11 18:57:57;;;;;;;73.23;2.20;;;28.90;13.70;;;;;;4975219;28;20567;-72
2023/06/11 19:00:23;;;;;;;73.37;2.60;;;28.60;13.80;;;;;;4975262;28;20410;-71
2023/06/11 19:02:49;;;;;;;73.77;2.37;;;28.70;14.10;;;;;;4975021;28;20402;-71
2023/06/11 19:05:15;;;;;;;73.40;2.00;;;28.50;15.00;;;;;;4974779;28;20432;-72
2023/06/11 19:07:40;;;;;;;73.47;2.20;;;28.40;15.00;;;;;;4975084;28;20658;-71
2023/06/11 19:10:12;;;;;;;73.97;2.60;;;28.50;15.40;;;;;;4974973;28;20177;-72
2023/06/11 19:12:41;;;;;;;74.57;2.53;;;28.60;15.40;;;;;;4974870;28;20174;-71
2023/06/11 19:15:07;;;;;;;73.57;2.10;;;28.40;15.20;;;;;;4974608;28;20803;-72
2023/06/11 19:17:33;;;;;;;74.70;2.60;;;28.30;14.20;;;;;;4974894;28;20619;-71
2023/06/11 19:19:59;;;;;;;73.97;2.40;;;28.20;15.30;;;;;;4973496;28;20181;-72
2023/06/11 19:22:24;;;;;;;73.97;2.40;;;28.30;17.00;;;;;;4974568;28;20221;-72
2023/06/11 19:24:50;;;;;;;73.97;2.23;;;28.20;15.30;;;;;;4974589;28;20198;-72
2023/06/11 19:27:16;;;;;;;73.87;2.20;;;28.10;16.60;;;;;;4974731;28;20610;-72
2023/06/11 19:29:41;;;;;;;74.60;2.57;;;28.10;16.40;;;;;;4974188;28;20261;-72
2023/06/11 19:32:07;;;;;;;76.80;2.30;;;28.10;16.20;;;;;;4974721;28;20640;-69
2023/06/11 19:34:33;;;;;;;74.80;2.83;;;28.00;16.20;;;;;;4974027;28;20210;-72
2023/06/11 19:36:59;;;;;;;74.60;2.20;;;28.00;17.40;;;;;;4974362;28;20460;-70
2023/06/11 19:39:24;;;;;;;74.57;2.27;;;27.90;17.00;;;;;;4974345;28;20194;-70
2023/06/11 19:41:50;;;;;;;78.13;2.20;;;27.90;17.40;;;;;;4974462;28;20219;-70
2023/06/11 19:44:15;;;;;;;74.90;2.33;;;27.70;16.90;;;;;;4974180;28;20181;-70
2023/06/11 19:46:42;;;;;;;74.87;2.30;;;27.70;17.50;;;;;;4974116;28;20197;-70
2023/06/11 19:49:08;;;;;;;74.80;2.27;;;27.40;17.20;;;;;;4974085;28;20182;-70
2023/06/11 19:51:33;;;;;;;75.50;2.47;;;27.40;17.20;;;;;;4974147;28;20816;-71
2023/06/11 19:53:59;;;;;;;75.10;2.33;;;27.30;17.90;;;;;;4974245;28;20181;-71
2023/06/11 19:56:25;;;;;;;75.00;2.40;;;27.20;17.90;;;;;;4973708;28;20218;-71
2023/06/11 19:58:51;;;;;;;76.87;2.70;;;27.20;18.20;;;;;;4974102;28;20913;-71
2023/06/11 20:01:17;;;;;;;75.90;2.73;;;27.00;18.20;;;;;;4973844;28;20174;-71
2023/06/11 20:03:44;;;;;;;75.87;2.30;;;26.90;20.10;;;;;;4974054;28;20171;-71
2023/06/11 20:06:10;;;;;;;75.77;2.37;;;26.90;18.90;;;;;;4972206;28;20453;-71
2023/06/11 20:08:37;;;;;;;77.13;2.70;;;26.90;18.60;;;;;;4974079;28;20418;-71
2023/06/11 20:11:08;;;;;;;77.00;2.93;;;26.80;19.00;;;;;;4973570;28;20496;-71
2023/06/11 20:13:34;;;;;;;77.03;2.60;;;26.80;18.10;;;;;;4974042;28;20398;-71
2023/06/11 20:16:01;;;;;;;75.73;2.33;;;26.70;19.70;;;;;;4973458;28;20473;-71
2023/06/11 20:18:26;;;;;;;76.30;2.60;;;26.60;19.40;;;;;;4973690;28;21124;-70
2023/06/11 20:20:52;;;;;;;76.37;2.50;;;26.50;19.10;;;;;;4973738;28;20427;-70
2023/06/11 20:23:18;;;;;;;75.97;2.27;;;26.40;19.70;;;;;;4973824;28;20217;-70
2023/06/11 20:25:43;;;;;;;76.47;2.33;;;26.30;19.50;;;;;;4973109;28;20198;-70
2023/06/11 20:28:09;;;;;;;76.40;2.60;;;26.40;19.30;;;;;;4973621;28;20208;-70
2023/06/11 20:30:35;;;;;;;77.00;2.50;;;26.30;19.80;;;;;;4973622;28;20170;-71
2023/06/11 20:33:00;;;;;;;76.47;2.53;;;26.20;19.60;;;;;;4973680;28;20186;-71
2023/06/11 20:35:26;;;;;;;77.00;2.63;;;26.20;19.60;;;;;;4973125;28;20317;-71
2023/06/11 20:37:51;;;;;;;78.40;3.87;;;26.20;19.90;;;;;;4973191;28;20198;-71
2023/06/11 20:40:17;;;;;;;78.27;2.60;;;26.20;19.50;;;;;;4973491;28;20525;-71
2023/06/11 20:42:42;;;;;;;76.60;2.50;;;26.10;19.90;;;;;;4972683;28;20305;-71
2023/06/11 20:45:08;;;;;;;77.60;2.87;;;26.10;21.60;;;;;;4973120;28;20194;-70
2023/06/11 20:47:34;;;;;;;76.30;2.20;;;26.00;21.10;;;;;;4973489;28;20173;-70
2023/06/11 20:50:00;;;;;;;77.40;2.53;;;26.00;20.60;;;;;;4973162;28;20593;-70
2023/06/11 20:52:29;;;;;;;76.87;2.50;;;25.90;21.70;;;;;;4973374;28;20171;-70
2023/06/11 20:54:54;;;;;;;78.10;2.90;;;25.80;19.80;;;;;;4986777;23;20222;-75
2023/06/11 20:57:20;;;;;;;77.43;2.50;;;25.80;21.00;;;;;;4991620;28;20508;-75
2023/06/11 20:59:46;;;;;;;78.10;2.80;;;25.90;22.50;;;;;;4992477;28;20209;-76
2023/06/11 21:02:11;;;;;;;77.70;2.57;;;25.80;22.30;;;;;;4992299;28;20601;-75
2023/06/11 21:04:37;;;;;;;77.50;2.40;;;25.80;22.40;;;;;;4989953;28;20178;-75
2023/06/11 21:07:03;;;;;;;77.00;2.33;;;25.70;21.20;;;;;;4973084;28;20171;-75
2023/06/11 21:09:28;;;;;;;77.03;2.30;;;25.70;20.60;;;;;;4973195;28;20209;-76
2023/06/11 21:11:54;;;;;;;77.30;2.50;;;25.50;21.10;;;;;;4973084;28;20253;-75
2023/06/11 21:14:21;;;;;;;78.07;2.97;;;25.50;21.20;;;;;;4973516;28;20639;-76
2023/06/11 21:16:46;;;;;;;77.93;2.40;;;25.50;20.50;;;;;;4972413;28;20420;-76
2023/06/11 21:19:12;;;;;;;77.47;2.50;;;25.50;21.60;;;;;;4973491;28;20802;-75
2023/06/11 21:21:37;;;;;;;77.50;2.50;;;25.40;20.70;;;;;;4973033;28;20217;-75
2023/06/11 21:24:03;;;;;;;77.57;2.30;;;25.40;21.30;;;;;;4972990;28;20174;-75
2023/06/11 21:26:29;;;;;;;79.00;2.70;;;25.30;20.00;;;;;;4972593;28;20198;-75
2023/06/11 21:28:54;;;;;;;77.47;2.57;;;25.20;22.10;;;;;;4972788;28;20857;-76
2023/06/11 21:31:20;;;;;;;78.00;2.60;;;25.20;20.70;;;;;;4972814;28;20174;-75
2023/06/11 21:33:46;;;;;;;77.80;2.53;;;25.20;20.50;;;;;;4972924;28;20186;-75
2023/06/11 21:36:12;;;;;;;77.13;2.33;;;25.40;20.90;;;;;;4972780;28;20492;-75
2023/06/11 21:38:37;;;;;;;77.17;2.40;;;25.40;19.50;;;;;;4972565;28;20198;-75
2023/06/11 21:41:03;;;;;;;77.23;2.50;;;25.50;21.00;;;;;;4969920;28;20182;-76
2023/06/11 21:43:28;;;;;;;77.57;2.10;;;25.30;20.50;;;;;;4967210;28;20170;-75
2023/06/11 21:45:54;;;;;;;77.40;2.70;;;25.40;20.90;;;;;;4969093;28;20272;-75
2023/06/11 21:48:20;;;;;;;77.53;2.70;;;25.40;18.80;;;;;;4971689;28;20221;-75
2023/06/11 21:50:45;;;;;;;77.27;2.57;;;25.40;20.60;;;;;;4968060;28;20488;-76
2023/06/11 21:53:13;;;;;;;77.20;2.50;;;25.30;21.40;;;;;;4972529;28;20178;-76
2023/06/11 21:55:40;;;;;;;77.53;2.70;;;25.30;20.70;;;;;;4975428;28;20213;-77
2023/06/11 21:58:06;;;;;;;77.97;2.50;;;25.20;20.50;;;;;;4974814;28;20507;-76
2023/06/11 22:00:32;;;;;;;77.20;2.33;;;25.20;21.20;;;;;;4974876;28;20413;-76
2023/06/11 22:02:57;;;;;;;77.97;2.33;;;25.10;20.60;;;;;;4973912;28;20174;-75
2023/06/11 22:05:23;;;;;;;77.60;2.73;;;25.20;20.90;;;;;;4974186;28;20631;-78
2023/06/11 22:07:50;;;;;;;77.37;2.47;;;24.90;20.30;;;;;;4974040;28;20181;-75
2023/06/11 22:10:16;;;;;;;78.37;2.40;;;24.90;21.10;;;;;;4974395;28;20192;-75
2023/06/11 22:12:43;;;;;;;77.93;2.70;;;24.90;20.60;;;;;;4974022;28;20915;-75
2023/06/11 22:15:10;;;;;;;78.30;2.80;;;24.80;21.30;;;;;;4973960;28;20214;-75
2023/06/11 22:17:36;;;;;;;78.10;2.70;;;24.80;20.80;;;;;;4974441;28;20429;-75
2023/06/11 22:20:10;;;;;;;77.73;2.50;;;25.00;22.00;;;;;;4975068;28;20423;-75
2023/06/11 22:22:37;;;;;;;77.47;2.60;;;24.80;21.60;;;;;;4976035;28;20464;-75
2023/06/11 22:25:10;;;;;;;77.67;2.30;;;24.90;22.50;;;;;;4975387;28;20457;-75
2023/06/11 22:27:37;;;;;;;78.07;2.50;;;24.80;21.80;;;;;;4975810;28;20406;-75
2023/06/11 22:30:04;;;;;;;77.80;2.57;;;24.50;20.90;;;;;;4975696;28;20422;-75
2023/06/11 22:32:30;;;;;;;78.50;2.90;;;24.60;22.40;;;;;;4974679;28;20443;-78
2023/06/11 22:34:55;;;;;;;77.70;2.60;;;24.70;21.40;;;;;;4990414;28;20472;-78
2023/06/11 22:37:21;;;;;;;78.57;2.70;;;24.80;21.70;;;;;;4975836;28;20844;-77
2023/06/11 22:39:47;;;;;;;78.50;2.67;;;24.70;21.50;;;;;;4975699;28;20209;-77
2023/06/11 22:42:12;;;;;;;78.20;2.53;;;24.70;21.30;;;;;;4975752;28;20177;-77
2023/06/11 22:44:38;;;;;;;78.37;2.80;;;24.60;22.30;;;;;;4973973;28;20691;-76
2023/06/11 22:47:05;;;;;;;78.10;2.40;;;24.60;22.80;;;;;;4974616;28;20513;-77
2023/06/11 22:49:34;;;;;;;80.47;2.93;;;24.70;22.10;;;;;;4974782;28;20185;-77
2023/06/11 22:52:00;;;;;;;78.10;2.50;;;24.60;23.10;;;;;;4975454;28;20421;-77
2023/06/11 22:54:25;;;;;;;77.87;2.20;;;24.60;22.20;;;;;;4975318;28;20421;-75
2023/06/11 22:56:51;;;;;;;78.40;2.67;;;24.60;21.70;;;;;;4975118;28;20441;-77
2023/06/11 22:59:17;;;;;;;77.97;2.27;;;24.60;21.20;;;;;;4976053;28;20272;-77
2023/06/11 23:01:47;;;;;;;80.33;2.50;;;24.60;21.50;;;;;;4975541;28;20410;-77
2023/06/11 23:04:12;;;;;;;78.37;2.50;;;24.60;22.50;;;;;;4975389;28;20801;-77
2023/06/11 23:06:46;;;;;;;78.13;2.17;;;24.60;22.50;;;;;;4978661;28;20440;-77
2023/06/11 23:09:16;;;;;;;78.70;2.80;;;24.60;21.50;;;;;;4978797;28;20196;-77
2023/06/11 23:11:43;;;;;;;78.37;2.40;;;24.60;21.90;;;;;;4978997;28;20430;-78
2023/06/11 23:14:10;;;;;;;78.97;2.83;;;24.60;22.00;;;;;;4979009;28;20757;-78
2023/06/11 23:16:40;;;;;;;78.07;2.20;;;24.60;21.70;;;;;;4979183;28;20446;-77
2023/06/11 23:19:07;;;;;;;78.77;2.73;;;24.60;22.20;;;;;;4978699;28;20475;-78
2023/06/11 23:21:33;;;;;;;78.17;2.10;;;24.40;23.20;;;;;;4979269;28;20430;-77
2023/06/11 23:24:04;;;;;;;78.63;2.47;;;24.30;23.20;;;;;;4978466;28;20976;-77
2023/06/11 23:26:30;;;;;;;78.47;2.60;;;24.20;22.90;;;;;;4978842;28;20429;-77
2023/06/11 23:28:56;;;;;;;78.43;2.20;;;23.80;23.20;;;;;;4977103;28;20830;-78
2023/06/11 23:31:22;;;;;;;79.57;2.50;;;23.90;23.90;;;;;;4978601;28;20496;-77
2023/06/11 23:33:49;;;;;;;79.00;2.60;;;23.70;23.70;;;;;;4978340;28;20411;-77
2023/06/11 23:36:15;;;;;;;79.13;2.63;;;23.80;24.20;;;;;;4978402;28;20200;-78
2023/06/11 23:38:42;;;;;;;79.47;2.60;;;23.60;25.20;;;;;;4977670;28;20476;-78
2023/06/11 23:41:08;;;;;;;78.53;2.30;;;23.50;25.50;;;;;;4978250;28;20401;-77
2023/06/11 23:43:34;;;;;;;79.70;2.83;;;23.40;24.30;;;;;;4977898;28;20454;-77
2023/06/11 23:46:00;;;;;;;79.30;2.60;;;23.30;25.60;;;;;;4977784;28;20863;-77
2023/06/11 23:48:25;;;;;;;78.77;2.50;;;22.80;25.30;;;;;;4978588;28;20262;-77
2023/06/11 23:50:51;;;;;;;79.20;2.50;;;22.70;25.40;;;;;;4977834;28;20452;-78
2023/06/11 23:53:16;;;;;;;78.70;2.20;;;22.90;25.10;;;;;;4975743;28;20172;-78
2023/06/11 23:55:42;;;;;;;79.10;2.47;;;23.00;25.80;;;;;;4975734;28;20282;-77
2023/06/11 23:58:19;;;;;;;78.53;2.20;;;23.00;25.50;;;;;;4976165;28;20560;-78
